Paddy Hill, New York
Current Conditions -  °F | °C
As of 3:56 PM on Thursday 18 Dec 2014 (Local Time) from KART Reporting Station
Overcast Overcast  
Wind Chill: 24°   Ceiling: 1900
Heat Index: 32°   Visibility: 10mi
Dew Point: 22°   Wind: 9mph
Humidity: 66%   Direction: 280°W
Pressure: 30"   Gusts: NA
Location:  44.0259°N, 75.9857°W
Report Text: KART 182056Z AUTO 28008KT 10SM OVC019 00/M06 A3000 RMK AO2 SLP165 T00001056 53009
Loading
Personal Weather Stations






























Interactive Weather Map New forecast layout! Learn more

10-Day Weather Forecast

Advertisements
Track Severe Weather on mobile